sensor_id;sensor_type;location;lat;lon;timestamp;P1;durP1;ratioP1;P2;durP2;ratioP2
9102;SDS011;4587;51.434;6.788;2023-04-06T00:01:36;10.80;;;6.90;;
9102;SDS011;4587;51.434;6.788;2023-04-06T00:04:02;12.17;;;7.43;;
9102;SDS011;4587;51.434;6.788;2023-04-06T00:06:28;9.43;;;7.37;;
9102;SDS011;4587;51.434;6.788;2023-04-06T00:08:57;9.60;;;7.53;;
9102;SDS011;4587;51.434;6.788;2023-04-06T00:11:23;11.53;;;7.77;;
9102;SDS011;4587;51.434;6.788;2023-04-06T00:13:50;10.97;;;7.17;;
9102;SDS011;4587;51.434;6.788;2023-04-06T00:16:15;10.73;;;7.83;;
9102;SDS011;4587;51.434;6.788;2023-04-06T00:18:41;11.13;;;7.20;;
9102;SDS011;4587;51.434;6.788;2023-04-06T00:21:07;9.60;;;6.93;;
9102;SDS011;4587;51.434;6.788;2023-04-06T00:23:32;10.67;;;7.40;;
9102;SDS011;4587;51.434;6.788;2023-04-06T00:25:58;9.30;;;7.17;;
9102;SDS011;4587;51.434;6.788;2023-04-06T00:28:24;10.17;;;7.43;;
9102;SDS011;4587;51.434;6.788;2023-04-06T00:30:54;11.57;;;7.70;;
9102;SDS011;4587;51.434;6.788;2023-04-06T00:33:20;11.37;;;7.80;;
9102;SDS011;4587;51.434;6.788;2023-04-06T00:35:47;10.87;;;7.97;;
9102;SDS011;4587;51.434;6.788;2023-04-06T00:38:14;10.83;;;7.03;;
9102;SDS011;4587;51.434;6.788;2023-04-06T00:40:40;11.23;;;7.70;;
9102;SDS011;4587;51.434;6.788;2023-04-06T00:43:06;10.20;;;7.90;;
9102;SDS011;4587;51.434;6.788;2023-04-06T00:45:34;10.83;;;7.70;;
9102;SDS011;4587;51.434;6.788;2023-04-06T00:48:00;10.93;;;7.80;;
9102;SDS011;4587;51.434;6.788;2023-04-06T00:50:26;10.30;;;8.00;;
9102;SDS011;4587;51.434;6.788;2023-04-06T00:52:52;11.63;;;7.33;;
9102;SDS011;4587;51.434;6.788;2023-04-06T00:55:19;10.83;;;7.60;;
9102;SDS011;4587;51.434;6.788;2023-04-06T00:57:45;11.00;;;8.50;;
9102;SDS011;4587;51.434;6.788;2023-04-06T01:00:12;12.80;;;7.70;;
9102;SDS011;4587;51.434;6.788;2023-04-06T01:02:38;10.70;;;8.13;;
9102;SDS011;4587;51.434;6.788;2023-04-06T01:05:04;12.17;;;8.40;;
9102;SDS011;4587;51.434;6.788;2023-04-06T01:07:31;10.47;;;7.53;;
9102;SDS011;4587;51.434;6.788;2023-04-06T01:09:56;11.37;;;8.07;;
9102;SDS011;4587;51.434;6.788;2023-04-06T01:12:22;16.10;;;8.70;;
9102;SDS011;4587;51.434;6.788;2023-04-06T01:14:48;10.83;;;8.80;;
9102;SDS011;4587;51.434;6.788;2023-04-06T01:17:14;10.73;;;8.23;;
9102;SDS011;4587;51.434;6.788;2023-04-06T01:19:40;14.27;;;8.17;;
9102;SDS011;4587;51.434;6.788;2023-04-06T01:22:06;10.63;;;8.00;;
9102;SDS011;4587;51.434;6.788;2023-04-06T01:24:32;11.60;;;8.40;;
9102;SDS011;4587;51.434;6.788;2023-04-06T01:26:58;12.60;;;8.70;;
9102;SDS011;4587;51.434;6.788;2023-04-06T01:29:24;9.57;;;8.17;;
9102;SDS011;4587;51.434;6.788;2023-04-06T01:31:49;9.83;;;8.10;;
9102;SDS011;4587;51.434;6.788;2023-04-06T01:34:15;10.93;;;8.17;;
9102;SDS011;4587;51.434;6.788;2023-04-06T01:36:41;10.13;;;7.87;;
9102;SDS011;4587;51.434;6.788;2023-04-06T01:39:06;12.03;;;8.37;;
9102;SDS011;4587;51.434;6.788;2023-04-06T01:41:32;11.17;;;8.30;;
9102;SDS011;4587;51.434;6.788;2023-04-06T01:43:58;9.80;;;7.77;;
9102;SDS011;4587;51.434;6.788;2023-04-06T01:46:24;11.23;;;8.03;;
9102;SDS011;4587;51.434;6.788;2023-04-06T01:48:50;8.97;;;7.50;;
9102;SDS011;4587;51.434;6.788;2023-04-06T01:51:16;10.60;;;7.47;;
9102;SDS011;4587;51.434;6.788;2023-04-06T01:53:41;10.27;;;7.57;;
9102;SDS011;4587;51.434;6.788;2023-04-06T01:56:07;10.90;;;7.40;;
9102;SDS011;4587;51.434;6.788;2023-04-06T01:58:33;8.07;;;7.27;;
9102;SDS011;4587;51.434;6.788;2023-04-06T02:00:59;11.13;;;8.20;;
9102;SDS011;4587;51.434;6.788;2023-04-06T02:03:25;10.90;;;8.70;;
9102;SDS011;4587;51.434;6.788;2023-04-06T02:05:50;10.40;;;8.43;;
9102;SDS011;4587;51.434;6.788;2023-04-06T02:08:16;12.43;;;8.73;;
9102;SDS011;4587;51.434;6.788;2023-04-06T02:10:42;15.90;;;9.47;;
9102;SDS011;4587;51.434;6.788;2023-04-06T02:13:07;10.57;;;8.43;;
9102;SDS011;4587;51.434;6.788;2023-04-06T02:15:33;11.50;;;8.47;;
9102;SDS011;4587;51.434;6.788;2023-04-06T02:17:59;12.27;;;9.30;;
9102;SDS011;4587;51.434;6.788;2023-04-06T02:20:25;13.47;;;9.07;;
9102;SDS011;4587;51.434;6.788;2023-04-06T02:22:51;12.37;;;9.33;;
9102;SDS011;4587;51.434;6.788;2023-04-06T02:25:17;13.20;;;9.53;;
9102;SDS011;4587;51.434;6.788;2023-04-06T02:27:42;11.53;;;9.17;;
9102;SDS011;4587;51.434;6.788;2023-04-06T02:30:08;15.70;;;9.90;;
9102;SDS011;4587;51.434;6.788;2023-04-06T02:32:34;14.70;;;9.87;;
9102;SDS011;4587;51.434;6.788;2023-04-06T02:35:00;12.80;;;9.77;;
9102;SDS011;4587;51.434;6.788;2023-04-06T02:37:26;12.23;;;9.27;;
9102;SDS011;4587;51.434;6.788;2023-04-06T02:39:51;13.20;;;9.50;;
9102;SDS011;4587;51.434;6.788;2023-04-06T02:42:17;13.17;;;10.47;;
9102;SDS011;4587;51.434;6.788;2023-04-06T02:44:43;10.97;;;9.07;;
9102;SDS011;4587;51.434;6.788;2023-04-06T02:47:08;13.13;;;9.67;;
9102;SDS011;4587;51.434;6.788;2023-04-06T02:49:34;12.23;;;9.90;;
9102;SDS011;4587;51.434;6.788;2023-04-06T02:52:00;16.13;;;10.40;;
9102;SDS011;4587;51.434;6.788;2023-04-06T02:54:27;13.63;;;9.93;;
9102;SDS011;4587;51.434;6.788;2023-04-06T02:56:52;15.77;;;10.13;;
9102;SDS011;4587;51.434;6.788;2023-04-06T02:59:18;12.77;;;9.93;;
9102;SDS011;4587;51.434;6.788;2023-04-06T03:01:44;13.83;;;10.93;;
9102;SDS011;4587;51.434;6.788;2023-04-06T03:04:10;11.83;;;9.40;;
9102;SDS011;4587;51.434;6.788;2023-04-06T03:06:36;14.67;;;10.17;;
9102;SDS011;4587;51.434;6.788;2023-04-06T03:09:02;13.40;;;9.50;;
9102;SDS011;4587;51.434;6.788;2023-04-06T03:11:27;12.57;;;9.77;;
9102;SDS011;4587;51.434;6.788;2023-04-06T03:13:53;13.43;;;9.97;;
9102;SDS011;4587;51.434;6.788;2023-04-06T03:16:19;15.57;;;10.37;;
9102;SDS011;4587;51.434;6.788;2023-04-06T03:18:45;14.70;;;10.40;;
9102;SDS011;4587;51.434;6.788;2023-04-06T03:21:12;13.80;;;9.87;;
9102;SDS011;4587;51.434;6.788;2023-04-06T03:23:40;12.00;;;9.30;;
9102;SDS011;4587;51.434;6.788;2023-04-06T03:26:06;12.00;;;9.60;;
9102;SDS011;4587;51.434;6.788;2023-04-06T03:28:31;12.93;;;9.17;;
9102;SDS011;4587;51.434;6.788;2023-04-06T03:30:57;15.50;;;9.93;;
9102;SDS011;4587;51.434;6.788;2023-04-06T03:33:23;11.23;;;9.10;;
9102;SDS011;4587;51.434;6.788;2023-04-06T03:35:48;13.60;;;9.27;;
9102;SDS011;4587;51.434;6.788;2023-04-06T03:38:14;12.20;;;8.97;;
9102;SDS011;4587;51.434;6.788;2023-04-06T03:40:40;14.00;;;9.40;;
9102;SDS011;4587;51.434;6.788;2023-04-06T03:43:07;14.10;;;10.00;;
9102;SDS011;4587;51.434;6.788;2023-04-06T03:45:34;13.13;;;9.77;;
9102;SDS011;4587;51.434;6.788;2023-04-06T03:47:59;13.40;;;9.67;;
9102;SDS011;4587;51.434;6.788;2023-04-06T03:50:25;11.57;;;9.47;;
9102;SDS011;4587;51.434;6.788;2023-04-06T03:52:51;12.13;;;9.10;;
9102;SDS011;4587;51.434;6.788;2023-04-06T03:55:17;13.27;;;9.77;;
9102;SDS011;4587;51.434;6.788;2023-04-06T03:57:42;14.40;;;10.33;;
9102;SDS011;4587;51.434;6.788;2023-04-06T04:00:08;12.87;;;9.03;;
9102;SDS011;4587;51.434;6.788;2023-04-06T04:02:34;12.77;;;9.27;;
9102;SDS011;4587;51.434;6.788;2023-04-06T04:05:00;12.57;;;9.77;;
9102;SDS011;4587;51.434;6.788;2023-04-06T04:07:26;12.47;;;9.53;;
9102;SDS011;4587;51.434;6.788;2023-04-06T04:09:51;13.50;;;9.90;;
9102;SDS011;4587;51.434;6.788;2023-04-06T04:12:17;12.80;;;9.10;;
9102;SDS011;4587;51.434;6.788;2023-04-06T04:14:43;14.17;;;8.87;;
9102;SDS011;4587;51.434;6.788;2023-04-06T04:17:09;13.07;;;8.53;;
9102;SDS011;4587;51.434;6.788;2023-04-06T04:19:35;12.03;;;8.93;;
9102;SDS011;4587;51.434;6.788;2023-04-06T04:22:00;12.87;;;8.70;;
9102;SDS011;4587;51.434;6.788;2023-04-06T04:24:29;11.87;;;8.73;;
9102;SDS011;4587;51.434;6.788;2023-04-06T04:26:55;12.63;;;8.53;;
9102;SDS011;4587;51.434;6.788;2023-04-06T04:29:21;13.47;;;9.23;;
9102;SDS011;4587;51.434;6.788;2023-04-06T04:31:48;14.17;;;8.70;;
9102;SDS011;4587;51.434;6.788;2023-04-06T04:34:14;13.83;;;8.43;;
9102;SDS011;4587;51.434;6.788;2023-04-06T04:36:40;10.40;;;8.33;;
9102;SDS011;4587;51.434;6.788;2023-04-06T04:39:09;13.57;;;8.50;;
9102;SDS011;4587;51.434;6.788;2023-04-06T04:41:35;11.30;;;8.43;;
9102;SDS011;4587;51.434;6.788;2023-04-06T04:44:00;11.63;;;8.10;;
9102;SDS011;4587;51.434;6.788;2023-04-06T04:46:26;13.33;;;8.40;;
9102;SDS011;4587;51.434;6.788;2023-04-06T04:48:52;10.20;;;8.33;;
9102;SDS011;4587;51.434;6.788;2023-04-06T04:51:18;12.00;;;8.77;;
9102;SDS011;4587;51.434;6.788;2023-04-06T04:53:44;10.70;;;8.63;;
9102;SDS011;4587;51.434;6.788;2023-04-06T04:56:10;11.73;;;8.57;;
9102;SDS011;4587;51.434;6.788;2023-04-06T04:58:36;11.23;;;8.27;;
9102;SDS011;4587;51.434;6.788;2023-04-06T05:01:02;10.93;;;8.60;;
9102;SDS011;4587;51.434;6.788;2023-04-06T05:03:27;9.93;;;7.50;;
9102;SDS011;4587;51.434;6.788;2023-04-06T05:05:53;11.13;;;8.60;;
9102;SDS011;4587;51.434;6.788;2023-04-06T05:08:19;11.00;;;7.90;;
9102;SDS011;4587;51.434;6.788;2023-04-06T05:10:45;10.50;;;8.10;;
9102;SDS011;4587;51.434;6.788;2023-04-06T05:13:13;11.23;;;8.03;;
9102;SDS011;4587;51.434;6.788;2023-04-06T05:15:39;11.33;;;8.00;;
9102;SDS011;4587;51.434;6.788;2023-04-06T05:18:05;11.10;;;8.53;;
9102;SDS011;4587;51.434;6.788;2023-04-06T05:20:32;10.37;;;7.70;;
9102;SDS011;4587;51.434;6.788;2023-04-06T05:22:59;11.57;;;7.67;;
9102;SDS011;4587;51.434;6.788;2023-04-06T05:25:25;13.93;;;8.60;;
9102;SDS011;4587;51.434;6.788;2023-04-06T05:27:51;11.53;;;7.93;;
9102;SDS011;4587;51.434;6.788;2023-04-06T05:30:17;12.77;;;7.60;;
9102;SDS011;4587;51.434;6.788;2023-04-06T05:32:43;11.83;;;7.90;;
9102;SDS011;4587;51.434;6.788;2023-04-06T05:35:09;11.00;;;7.77;;
9102;SDS011;4587;51.434;6.788;2023-04-06T05:37:35;9.67;;;7.63;;
9102;SDS011;4587;51.434;6.788;2023-04-06T05:40:01;11.13;;;7.87;;
9102;SDS011;4587;51.434;6.788;2023-04-06T05:42:27;11.73;;;8.70;;
9102;SDS011;4587;51.434;6.788;2023-04-06T05:45:01;9.47;;;7.43;;
9102;SDS011;4587;51.434;6.788;2023-04-06T05:47:27;10.40;;;7.70;;
9102;SDS011;4587;51.434;6.788;2023-04-06T05:49:53;9.70;;;7.47;;
9102;SDS011;4587;51.434;6.788;2023-04-06T05:52:18;8.73;;;7.80;;
9102;SDS011;4587;51.434;6.788;2023-04-06T05:54:44;9.90;;;7.23;;
9102;SDS011;4587;51.434;6.788;2023-04-06T05:57:10;9.27;;;7.67;;
9102;SDS011;4587;51.434;6.788;2023-04-06T05:59:36;10.47;;;7.93;;
9102;SDS011;4587;51.434;6.788;2023-04-06T06:02:01;12.60;;;8.40;;
9102;SDS011;4587;51.434;6.788;2023-04-06T06:04:27;9.73;;;7.60;;
9102;SDS011;4587;51.434;6.788;2023-04-06T06:06:53;11.30;;;8.10;;
9102;SDS011;4587;51.434;6.788;2023-04-06T06:09:18;9.77;;;7.33;;
9102;SDS011;4587;51.434;6.788;2023-04-06T06:11:44;10.90;;;8.27;;
9102;SDS011;4587;51.434;6.788;2023-04-06T06:14:10;10.07;;;8.00;;
9102;SDS011;4587;51.434;6.788;2023-04-06T06:16:36;11.80;;;8.13;;
9102;SDS011;4587;51.434;6.788;2023-04-06T06:19:01;11.13;;;7.83;;
9102;SDS011;4587;51.434;6.788;2023-04-06T06:21:27;9.63;;;7.47;;
9102;SDS011;4587;51.434;6.788;2023-04-06T06:23:53;9.23;;;7.00;;
9102;SDS011;4587;51.434;6.788;2023-04-06T06:26:19;8.17;;;7.27;;
9102;SDS011;4587;51.434;6.788;2023-04-06T06:28:45;8.60;;;7.23;;
9102;SDS011;4587;51.434;6.788;2023-04-06T06:31:11;10.43;;;7.80;;
9102;SDS011;4587;51.434;6.788;2023-04-06T06:33:37;9.30;;;7.23;;
9102;SDS011;4587;51.434;6.788;2023-04-06T06:36:03;12.20;;;7.00;;
9102;SDS011;4587;51.434;6.788;2023-04-06T06:38:28;10.30;;;7.17;;
9102;SDS011;4587;51.434;6.788;2023-04-06T06:40:54;9.27;;;7.53;;
9102;SDS011;4587;51.434;6.788;2023-04-06T06:43:20;9.47;;;7.13;;
9102;SDS011;4587;51.434;6.788;2023-04-06T06:45:46;11.23;;;7.03;;
9102;SDS011;4587;51.434;6.788;2023-04-06T06:48:11;11.60;;;7.70;;
9102;SDS011;4587;51.434;6.788;2023-04-06T06:50:37;8.83;;;7.70;;
9102;SDS011;4587;51.434;6.788;2023-04-06T06:53:03;8.33;;;7.50;;
9102;SDS011;4587;51.434;6.788;2023-04-06T06:55:29;7.93;;;6.73;;
9102;SDS011;4587;51.434;6.788;2023-04-06T06:57:54;9.13;;;7.07;;
9102;SDS011;4587;51.434;6.788;2023-04-06T07:00:20;8.40;;;7.17;;
9102;SDS011;4587;51.434;6.788;2023-04-06T07:02:47;8.80;;;7.20;;
9102;SDS011;4587;51.434;6.788;2023-04-06T07:05:13;11.00;;;7.13;;
9102;SDS011;4587;51.434;6.788;2023-04-06T07:07:39;10.10;;;7.00;;
9102;SDS011;4587;51.434;6.788;2023-04-06T07:10:05;9.37;;;7.50;;
9102;SDS011;4587;51.434;6.788;2023-04-06T07:12:31;9.20;;;7.13;;
9102;SDS011;4587;51.434;6.788;2023-04-06T07:14:56;10.07;;;7.40;;
9102;SDS011;4587;51.434;6.788;2023-04-06T07:17:22;10.30;;;7.33;;
9102;SDS011;4587;51.434;6.788;2023-04-06T07:19:48;8.10;;;7.30;;
9102;SDS011;4587;51.434;6.788;2023-04-06T07:22:14;8.60;;;6.83;;
9102;SDS011;4587;51.434;6.788;2023-04-06T07:24:39;9.43;;;7.43;;
9102;SDS011;4587;51.434;6.788;2023-04-06T07:27:05;8.20;;;7.37;;
9102;SDS011;4587;51.434;6.788;2023-04-06T07:29:32;9.40;;;7.43;;
9102;SDS011;4587;51.434;6.788;2023-04-06T07:31:57;9.97;;;7.23;;
9102;SDS011;4587;51.434;6.788;2023-04-06T07:34:23;8.13;;;6.97;;
9102;SDS011;4587;51.434;6.788;2023-04-06T07:36:49;7.73;;;6.93;;
9102;SDS011;4587;51.434;6.788;2023-04-06T07:39:15;13.30;;;7.57;;
9102;SDS011;4587;51.434;6.788;2023-04-06T07:41:40;8.83;;;7.50;;
9102;SDS011;4587;51.434;6.788;2023-04-06T07:44:06;10.40;;;7.67;;
9102;SDS011;4587;51.434;6.788;2023-04-06T07:46:32;9.57;;;8.10;;
9102;SDS011;4587;51.434;6.788;2023-04-06T07:48:58;9.30;;;7.37;;
9102;SDS011;4587;51.434;6.788;2023-04-06T07:51:24;8.37;;;7.57;;
9102;SDS011;4587;51.434;6.788;2023-04-06T07:53:51;9.37;;;8.23;;
9102;SDS011;4587;51.434;6.788;2023-04-06T07:56:17;8.57;;;7.67;;
9102;SDS011;4587;51.434;6.788;2023-04-06T07:58:43;12.93;;;8.03;;
9102;SDS011;4587;51.434;6.788;2023-04-06T08:01:08;10.23;;;7.10;;
9102;SDS011;4587;51.434;6.788;2023-04-06T08:03:34;9.37;;;8.00;;
9102;SDS011;4587;51.434;6.788;2023-04-06T08:06:01;10.53;;;7.87;;
9102;SDS011;4587;51.434;6.788;2023-04-06T08:08:28;10.27;;;8.40;;
9102;SDS011;4587;51.434;6.788;2023-04-06T08:10:53;9.77;;;8.40;;
9102;SDS011;4587;51.434;6.788;2023-04-06T08:13:19;10.23;;;7.57;;
9102;SDS011;4587;51.434;6.788;2023-04-06T08:15:46;9.23;;;7.90;;
9102;SDS011;4587;51.434;6.788;2023-04-06T08:18:12;9.80;;;8.80;;
9102;SDS011;4587;51.434;6.788;2023-04-06T08:20:38;10.90;;;9.13;;
9102;SDS011;4587;51.434;6.788;2023-04-06T08:23:04;9.20;;;8.17;;
9102;SDS011;4587;51.434;6.788;2023-04-06T08:25:31;11.97;;;8.90;;
9102;SDS011;4587;51.434;6.788;2023-04-06T08:27:59;9.63;;;8.63;;
9102;SDS011;4587;51.434;6.788;2023-04-06T08:30:25;9.27;;;8.27;;
9102;SDS011;4587;51.434;6.788;2023-04-06T08:32:51;12.40;;;9.10;;
9102;SDS011;4587;51.434;6.788;2023-04-06T08:35:17;11.97;;;8.73;;
9102;SDS011;4587;51.434;6.788;2023-04-06T08:37:42;11.70;;;8.80;;
9102;SDS011;4587;51.434;6.788;2023-04-06T08:40:08;10.33;;;8.67;;
9102;SDS011;4587;51.434;6.788;2023-04-06T08:42:37;14.00;;;9.67;;
9102;SDS011;4587;51.434;6.788;2023-04-06T08:45:06;14.27;;;10.10;;
9102;SDS011;4587;51.434;6.788;2023-04-06T08:47:34;11.30;;;10.03;;
9102;SDS011;4587;51.434;6.788;2023-04-06T08:50:03;11.47;;;9.70;;
9102;SDS011;4587;51.434;6.788;2023-04-06T08:52:29;12.17;;;9.50;;
9102;SDS011;4587;51.434;6.788;2023-04-06T08:54:58;10.27;;;9.03;;
9102;SDS011;4587;51.434;6.788;2023-04-06T08:57:24;10.10;;;9.10;;
9102;SDS011;4587;51.434;6.788;2023-04-06T08:59:51;13.50;;;8.97;;
9102;SDS011;4587;51.434;6.788;2023-04-06T09:02:18;13.70;;;9.43;;
9102;SDS011;4587;51.434;6.788;2023-04-06T09:04:48;10.70;;;9.60;;
9102;SDS011;4587;51.434;6.788;2023-04-06T09:07:15;13.10;;;9.90;;
9102;SDS011;4587;51.434;6.788;2023-04-06T09:09:41;13.20;;;9.50;;
9102;SDS011;4587;51.434;6.788;2023-04-06T09:12:34;12.13;;;9.93;;
9102;SDS011;4587;51.434;6.788;2023-04-06T09:14:59;12.50;;;9.70;;
9102;SDS011;4587;51.434;6.788;2023-04-06T09:17:26;13.27;;;10.40;;
9102;SDS011;4587;51.434;6.788;2023-04-06T09:19:53;11.13;;;9.90;;
9102;SDS011;4587;51.434;6.788;2023-04-06T09:22:20;16.40;;;10.27;;
9102;SDS011;4587;51.434;6.788;2023-04-06T09:24:48;12.97;;;10.60;;
9102;SDS011;4587;51.434;6.788;2023-04-06T09:27:15;12.77;;;9.80;;
9102;SDS011;4587;51.434;6.788;2023-04-06T09:29:41;14.40;;;9.17;;
9102;SDS011;4587;51.434;6.788;2023-04-06T09:32:08;12.70;;;9.40;;
9102;SDS011;4587;51.434;6.788;2023-04-06T09:34:36;16.03;;;10.47;;
9102;SDS011;4587;51.434;6.788;2023-04-06T09:37:13;11.30;;;9.70;;
9102;SDS011;4587;51.434;6.788;2023-04-06T09:39:39;12.80;;;10.13;;
9102;SDS011;4587;51.434;6.788;2023-04-06T09:42:05;13.97;;;10.97;;
9102;SDS011;4587;51.434;6.788;2023-04-06T09:44:31;14.17;;;10.60;;
9102;SDS011;4587;51.434;6.788;2023-04-06T09:46:57;15.07;;;11.10;;
9102;SDS011;4587;51.434;6.788;2023-04-06T09:49:22;12.53;;;10.47;;
9102;SDS011;4587;51.434;6.788;2023-04-06T09:51:59;13.90;;;10.60;;
9102;SDS011;4587;51.434;6.788;2023-04-06T09:54:31;12.67;;;10.67;;
9102;SDS011;4587;51.434;6.788;2023-04-06T09:59:54;14.70;;;10.57;;
9102;SDS011;4587;51.434;6.788;2023-04-06T10:05:33;13.90;;;11.10;;
9102;SDS011;4587;51.434;6.788;2023-04-06T10:08:09;13.23;;;10.83;;
9102;SDS011;4587;51.434;6.788;2023-04-06T10:10:36;14.07;;;10.70;;
9102;SDS011;4587;51.434;6.788;2023-04-06T10:13:02;12.80;;;11.13;;
9102;SDS011;4587;51.434;6.788;2023-04-06T10:15:29;13.87;;;11.30;;
9102;SDS011;4587;51.434;6.788;2023-04-06T10:17:59;15.83;;;11.87;;
9102;SDS011;4587;51.434;6.788;2023-04-06T10:23:13;17.67;;;12.03;;
9102;SDS011;4587;51.434;6.788;2023-04-06T10:25:56;16.33;;;12.20;;
9102;SDS011;4587;51.434;6.788;2023-04-06T10:28:23;15.60;;;11.70;;
9102;SDS011;4587;51.434;6.788;2023-04-06T10:30:56;15.53;;;12.00;;
9102;SDS011;4587;51.434;6.788;2023-04-06T10:33:23;17.53;;;12.30;;
9102;SDS011;4587;51.434;6.788;2023-04-06T10:35:49;16.60;;;12.27;;
9102;SDS011;4587;51.434;6.788;2023-04-06T10:38:15;16.77;;;12.97;;
9102;SDS011;4587;51.434;6.788;2023-04-06T10:40:45;15.77;;;12.50;;
9102;SDS011;4587;51.434;6.788;2023-04-06T10:43:18;14.90;;;12.20;;
9102;SDS011;4587;51.434;6.788;2023-04-06T10:45:45;18.23;;;13.10;;
9102;SDS011;4587;51.434;6.788;2023-04-06T10:48:22;15.57;;;12.80;;
9102;SDS011;4587;51.434;6.788;2023-04-06T10:50:49;18.40;;;12.87;;
9102;SDS011;4587;51.434;6.788;2023-04-06T10:53:34;16.93;;;12.77;;
9102;SDS011;4587;51.434;6.788;2023-04-06T10:56:00;19.97;;;12.83;;
9102;SDS011;4587;51.434;6.788;2023-04-06T10:58:29;16.93;;;12.07;;
9102;SDS011;4587;51.434;6.788;2023-04-06T11:00:55;16.83;;;11.70;;
9102;SDS011;4587;51.434;6.788;2023-04-06T11:03:21;18.27;;;12.27;;
9102;SDS011;4587;51.434;6.788;2023-04-06T11:05:48;15.97;;;12.10;;
9102;SDS011;4587;51.434;6.788;2023-04-06T11:08:22;18.30;;;12.83;;
9102;SDS011;4587;51.434;6.788;2023-04-06T11:10:52;14.80;;;12.30;;
9102;SDS011;4587;51.434;6.788;2023-04-06T11:13:39;16.93;;;12.97;;
9102;SDS011;4587;51.434;6.788;2023-04-06T11:16:15;17.73;;;12.70;;
9102;SDS011;4587;51.434;6.788;2023-04-06T11:18:52;18.37;;;13.70;;
9102;SDS011;4587;51.434;6.788;2023-04-06T11:21:19;19.57;;;13.03;;
9102;SDS011;4587;51.434;6.788;2023-04-06T11:24:30;17.97;;;13.40;;
9102;SDS011;4587;51.434;6.788;2023-04-06T11:26:50;20.20;;;14.10;;
9102;SDS011;4587;51.434;6.788;2023-04-06T11:29:17;17.80;;;13.40;;
9102;SDS011;4587;51.434;6.788;2023-04-06T11:31:54;20.40;;;14.20;;
9102;SDS011;4587;51.434;6.788;2023-04-06T11:34:25;16.70;;;14.10;;
9102;SDS011;4587;51.434;6.788;2023-04-06T11:36:55;18.13;;;13.27;;
9102;SDS011;4587;51.434;6.788;2023-04-06T11:39:26;19.67;;;14.63;;
9102;SDS011;4587;51.434;6.788;2023-04-06T11:41:57;20.23;;;14.27;;
9102;SDS011;4587;51.434;6.788;2023-04-06T11:44:28;17.07;;;13.40;;
9102;SDS011;4587;51.434;6.788;2023-04-06T11:46:54;17.23;;;14.07;;
9102;SDS011;4587;51.434;6.788;2023-04-06T11:49:26;17.83;;;13.97;;
9102;SDS011;4587;51.434;6.788;2023-04-06T11:51:55;20.27;;;14.20;;
9102;SDS011;4587;51.434;6.788;2023-04-06T11:54:35;17.97;;;13.23;;
9102;SDS011;4587;51.434;6.788;2023-04-06T11:57:05;20.93;;;14.97;;
9102;SDS011;4587;51.434;6.788;2023-04-06T11:59:32;18.77;;;14.30;;
9102;SDS011;4587;51.434;6.788;2023-04-06T12:01:59;19.97;;;14.77;;
9102;SDS011;4587;51.434;6.788;2023-04-06T12:04:26;16.90;;;13.53;;
9102;SDS011;4587;51.434;6.788;2023-04-06T12:06:52;19.50;;;14.17;;
9102;SDS011;4587;51.434;6.788;2023-04-06T12:09:17;17.80;;;14.23;;
9102;SDS011;4587;51.434;6.788;2023-04-06T12:11:43;19.37;;;13.23;;
9102;SDS011;4587;51.434;6.788;2023-04-06T12:14:10;19.17;;;13.63;;
9102;SDS011;4587;51.434;6.788;2023-04-06T12:16:36;20.97;;;13.77;;
9102;SDS011;4587;51.434;6.788;2023-04-06T12:19:02;17.67;;;13.90;;
9102;SDS011;4587;51.434;6.788;2023-04-06T12:21:28;19.40;;;13.10;;
9102;SDS011;4587;51.434;6.788;2023-04-06T12:23:56;20.67;;;13.67;;
9102;SDS011;4587;51.434;6.788;2023-04-06T12:26:25;17.97;;;13.30;;
9102;SDS011;4587;51.434;6.788;2023-04-06T12:28:52;20.30;;;13.50;;
9102;SDS011;4587;51.434;6.788;2023-04-06T12:31:18;18.03;;;13.40;;
9102;SDS011;4587;51.434;6.788;2023-04-06T12:33:46;19.40;;;13.10;;
9102;SDS011;4587;51.434;6.788;2023-04-06T12:36:13;16.77;;;12.07;;
9102;SDS011;4587;51.434;6.788;2023-04-06T12:38:40;16.70;;;13.63;;
9102;SDS011;4587;51.434;6.788;2023-04-06T12:41:07;17.77;;;12.87;;
9102;SDS011;4587;51.434;6.788;2023-04-06T12:43:33;17.40;;;13.13;;
9102;SDS011;4587;51.434;6.788;2023-04-06T12:45:58;17.37;;;13.37;;
9102;SDS011;4587;51.434;6.788;2023-04-06T12:48:25;14.67;;;13.10;;
9102;SDS011;4587;51.434;6.788;2023-04-06T12:50:58;15.13;;;11.40;;
9102;SDS011;4587;51.434;6.788;2023-04-06T12:53:26;14.87;;;11.87;;
9102;SDS011;4587;51.434;6.788;2023-04-06T12:55:53;16.23;;;11.40;;
9102;SDS011;4587;51.434;6.788;2023-04-06T12:58:19;13.20;;;11.13;;
9102;SDS011;4587;51.434;6.788;2023-04-06T13:00:46;11.87;;;10.13;;
9102;SDS011;4587;51.434;6.788;2023-04-06T13:03:15;13.13;;;9.53;;
9102;SDS011;4587;51.434;6.788;2023-04-06T13:05:48;12.60;;;9.53;;
9102;SDS011;4587;51.434;6.788;2023-04-06T13:08:15;11.30;;;9.47;;
9102;SDS011;4587;51.434;6.788;2023-04-06T13:10:48;12.60;;;10.00;;
9102;SDS011;4587;51.434;6.788;2023-04-06T13:13:16;11.40;;;9.07;;
9102;SDS011;4587;51.434;6.788;2023-04-06T13:15:42;10.43;;;8.80;;
9102;SDS011;4587;51.434;6.788;2023-04-06T13:18:08;12.27;;;8.53;;
9102;SDS011;4587;51.434;6.788;2023-04-06T13:20:34;11.03;;;8.13;;
9102;SDS011;4587;51.434;6.788;2023-04-06T13:23:00;10.50;;;7.50;;
9102;SDS011;4587;51.434;6.788;2023-04-06T13:25:26;9.27;;;8.10;;
9102;SDS011;4587;51.434;6.788;2023-04-06T13:27:56;12.17;;;7.40;;
9102;SDS011;4587;51.434;6.788;2023-04-06T13:30:22;9.13;;;6.40;;
9102;SDS011;4587;51.434;6.788;2023-04-06T13:32:48;7.50;;;5.33;;
9102;SDS011;4587;51.434;6.788;2023-04-06T13:35:14;10.73;;;5.83;;
9102;SDS011;4587;51.434;6.788;2023-04-06T13:37:40;9.70;;;6.63;;
9102;SDS011;4587;51.434;6.788;2023-04-06T13:40:05;7.77;;;6.70;;
9102;SDS011;4587;51.434;6.788;2023-04-06T13:42:32;8.50;;;6.70;;
9102;SDS011;4587;51.434;6.788;2023-04-06T13:44:59;10.27;;;7.20;;
9102;SDS011;4587;51.434;6.788;2023-04-06T13:47:26;9.20;;;7.30;;
9102;SDS011;4587;51.434;6.788;2023-04-06T13:49:52;9.97;;;7.73;;
9102;SDS011;4587;51.434;6.788;2023-04-06T13:52:18;8.93;;;7.53;;
9102;SDS011;4587;51.434;6.788;2023-04-06T13:54:45;8.53;;;7.37;;
9102;SDS011;4587;51.434;6.788;2023-04-06T13:57:11;7.93;;;7.00;;
9102;SDS011;4587;51.434;6.788;2023-04-06T13:59:37;9.87;;;7.70;;
9102;SDS011;4587;51.434;6.788;2023-04-06T14:02:03;11.63;;;8.17;;
9102;SDS011;4587;51.434;6.788;2023-04-06T14:04:31;10.17;;;9.07;;
9102;SDS011;4587;51.434;6.788;2023-04-06T14:06:58;10.97;;;8.70;;
9102;SDS011;4587;51.434;6.788;2023-04-06T14:09:24;10.33;;;8.10;;
9102;SDS011;4587;51.434;6.788;2023-04-06T14:11:50;12.43;;;8.53;;
9102;SDS011;4587;51.434;6.788;2023-04-06T14:14:16;11.73;;;8.20;;
9102;SDS011;4587;51.434;6.788;2023-04-06T14:16:43;12.17;;;8.53;;
9102;SDS011;4587;51.434;6.788;2023-04-06T14:19:12;10.50;;;8.23;;
9102;SDS011;4587;51.434;6.788;2023-04-06T14:21:40;10.27;;;8.47;;
9102;SDS011;4587;51.434;6.788;2023-04-06T14:24:07;10.43;;;8.27;;
9102;SDS011;4587;51.434;6.788;2023-04-06T14:26:36;12.30;;;8.10;;
9102;SDS011;4587;51.434;6.788;2023-04-06T14:29:03;9.13;;;7.67;;
9102;SDS011;4587;51.434;6.788;2023-04-06T14:31:29;10.13;;;7.63;;
9102;SDS011;4587;51.434;6.788;2023-04-06T14:34:05;8.43;;;7.47;;
9102;SDS011;4587;51.434;6.788;2023-04-06T14:36:31;8.70;;;7.43;;
9102;SDS011;4587;51.434;6.788;2023-04-06T14:39:04;11.07;;;7.73;;
9102;SDS011;4587;51.434;6.788;2023-04-06T14:41:31;9.93;;;7.23;;
9102;SDS011;4587;51.434;6.788;2023-04-06T14:43:57;8.73;;;7.00;;
9102;SDS011;4587;51.434;6.788;2023-04-06T14:46:23;8.23;;;7.00;;
9102;SDS011;4587;51.434;6.788;2023-04-06T14:48:49;8.07;;;7.20;;
9102;SDS011;4587;51.434;6.788;2023-04-06T14:51:14;8.23;;;7.23;;
9102;SDS011;4587;51.434;6.788;2023-04-06T14:53:40;8.80;;;7.90;;
9102;SDS011;4587;51.434;6.788;2023-04-06T14:56:06;9.33;;;7.60;;
9102;SDS011;4587;51.434;6.788;2023-04-06T14:58:32;9.80;;;7.60;;
9102;SDS011;4587;51.434;6.788;2023-04-06T15:00:58;8.50;;;7.33;;
9102;SDS011;4587;51.434;6.788;2023-04-06T15:03:25;8.67;;;7.47;;
9102;SDS011;4587;51.434;6.788;2023-04-06T15:05:55;9.33;;;7.90;;
9102;SDS011;4587;51.434;6.788;2023-04-06T15:08:40;11.07;;;8.03;;